sensor_id;sensor_type;location;lat;lon;timestamp;P1;durP1;ratioP1;P2;durP2;ratioP2
938;SDS011;456;53.584;9.968;2023-09-18T00:01:37;7.30;;;6.77;;
938;SDS011;456;53.584;9.968;2023-09-18T00:04:04;7.20;;;6.60;;
938;SDS011;456;53.584;9.968;2023-09-18T00:06:30;6.30;;;5.73;;
938;SDS011;456;53.584;9.968;2023-09-18T00:08:57;6.30;;;5.90;;
938;SDS011;456;53.584;9.968;2023-09-18T00:11:23;7.10;;;6.50;;
938;SDS011;456;53.584;9.968;2023-09-18T00:13:48;7.47;;;6.93;;
938;SDS011;456;53.584;9.968;2023-09-18T00:16:14;6.63;;;6.13;;
938;SDS011;456;53.584;9.968;2023-09-18T00:18:40;7.07;;;6.47;;
938;SDS011;456;53.584;9.968;2023-09-18T00:21:07;6.53;;;6.07;;
938;SDS011;456;53.584;9.968;2023-09-18T00:23:35;6.63;;;6.03;;
938;SDS011;456;53.584;9.968;2023-09-18T00:26:01;7.67;;;6.93;;
938;SDS011;456;53.584;9.968;2023-09-18T00:28:26;6.70;;;6.20;;
938;SDS011;456;53.584;9.968;2023-09-18T00:30:53;6.23;;;5.83;;
938;SDS011;456;53.584;9.968;2023-09-18T00:33:19;7.70;;;7.10;;
938;SDS011;456;53.584;9.968;2023-09-18T00:35:45;6.37;;;5.90;;
938;SDS011;456;53.584;9.968;2023-09-18T00:38:12;6.70;;;6.20;;
938;SDS011;456;53.584;9.968;2023-09-18T00:40:37;7.00;;;6.50;;
938;SDS011;456;53.584;9.968;2023-09-18T00:43:03;6.63;;;6.13;;
938;SDS011;456;53.584;9.968;2023-09-18T00:45:29;6.50;;;6.00;;
938;SDS011;456;53.584;9.968;2023-09-18T00:47:54;7.20;;;6.67;;
938;SDS011;456;53.584;9.968;2023-09-18T00:50:20;6.20;;;5.70;;
938;SDS011;456;53.584;9.968;2023-09-18T00:52:46;7.20;;;6.60;;
938;SDS011;456;53.584;9.968;2023-09-18T00:55:13;7.60;;;7.00;;
938;SDS011;456;53.584;9.968;2023-09-18T00:57:39;7.03;;;6.43;;
938;SDS011;456;53.584;9.968;2023-09-18T01:00:06;7.37;;;6.77;;
938;SDS011;456;53.584;9.968;2023-09-18T01:02:32;7.77;;;7.17;;
938;SDS011;456;53.584;9.968;2023-09-18T01:04:58;6.10;;;5.70;;
938;SDS011;456;53.584;9.968;2023-09-18T01:07:23;8.33;;;6.40;;
938;SDS011;456;53.584;9.968;2023-09-18T01:09:49;6.73;;;6.23;;
938;SDS011;456;53.584;9.968;2023-09-18T01:12:19;8.60;;;7.10;;
938;SDS011;456;53.584;9.968;2023-09-18T01:15:11;6.50;;;6.00;;
938;SDS011;456;53.584;9.968;2023-09-18T01:17:41;7.23;;;6.63;;
938;SDS011;456;53.584;9.968;2023-09-18T01:20:09;6.73;;;6.17;;
938;SDS011;456;53.584;9.968;2023-09-18T01:22:35;7.33;;;6.83;;
938;SDS011;456;53.584;9.968;2023-09-18T01:25:01;7.00;;;6.40;;
938;SDS011;456;53.584;9.968;2023-09-18T01:27:27;7.17;;;6.67;;
938;SDS011;456;53.584;9.968;2023-09-18T01:29:53;7.37;;;6.77;;
938;SDS011;456;53.584;9.968;2023-09-18T01:32:19;7.47;;;6.87;;
938;SDS011;456;53.584;9.968;2023-09-18T01:34:47;7.10;;;6.50;;
938;SDS011;456;53.584;9.968;2023-09-18T01:37:17;7.13;;;6.53;;
938;SDS011;456;53.584;9.968;2023-09-18T01:39:46;7.37;;;6.70;;
938;SDS011;456;53.584;9.968;2023-09-18T01:42:14;7.37;;;6.50;;
938;SDS011;456;53.584;9.968;2023-09-18T01:44:40;7.30;;;6.70;;
938;SDS011;456;53.584;9.968;2023-09-18T01:47:07;7.20;;;6.60;;
938;SDS011;456;53.584;9.968;2023-09-18T01:49:36;8.00;;;7.40;;
938;SDS011;456;53.584;9.968;2023-09-18T01:52:04;7.90;;;7.30;;
938;SDS011;456;53.584;9.968;2023-09-18T01:54:31;7.43;;;6.93;;
938;SDS011;456;53.584;9.968;2023-09-18T01:56:58;7.90;;;7.20;;
938;SDS011;456;53.584;9.968;2023-09-18T01:59:23;6.60;;;6.10;;
938;SDS011;456;53.584;9.968;2023-09-18T02:01:50;6.87;;;6.37;;
938;SDS011;456;53.584;9.968;2023-09-18T02:04:16;7.03;;;6.43;;
938;SDS011;456;53.584;9.968;2023-09-18T02:06:42;7.10;;;6.60;;
938;SDS011;456;53.584;9.968;2023-09-18T02:09:08;7.77;;;7.10;;
938;SDS011;456;53.584;9.968;2023-09-18T02:11:37;6.53;;;6.03;;
938;SDS011;456;53.584;9.968;2023-09-18T02:14:04;7.57;;;6.97;;
938;SDS011;456;53.584;9.968;2023-09-18T02:16:30;7.97;;;7.27;;
938;SDS011;456;53.584;9.968;2023-09-18T02:18:59;6.33;;;5.83;;
938;SDS011;456;53.584;9.968;2023-09-18T02:21:25;7.40;;;6.80;;
938;SDS011;456;53.584;9.968;2023-09-18T02:23:51;8.13;;;7.30;;
938;SDS011;456;53.584;9.968;2023-09-18T02:26:18;7.23;;;6.53;;
938;SDS011;456;53.584;9.968;2023-09-18T02:28:47;7.33;;;6.73;;
938;SDS011;456;53.584;9.968;2023-09-18T02:31:12;6.73;;;6.20;;
938;SDS011;456;53.584;9.968;2023-09-18T02:33:38;7.50;;;6.90;;
938;SDS011;456;53.584;9.968;2023-09-18T02:36:04;7.33;;;6.70;;
938;SDS011;456;53.584;9.968;2023-09-18T02:38:30;7.23;;;6.73;;
938;SDS011;456;53.584;9.968;2023-09-18T02:40:56;7.70;;;7.10;;
938;SDS011;456;53.584;9.968;2023-09-18T02:43:22;7.23;;;6.53;;
938;SDS011;456;53.584;9.968;2023-09-18T02:45:48;7.20;;;6.60;;
938;SDS011;456;53.584;9.968;2023-09-18T02:48:15;7.53;;;6.93;;
938;SDS011;456;53.584;9.968;2023-09-18T02:50:41;7.30;;;6.70;;
938;SDS011;456;53.584;9.968;2023-09-18T02:53:07;7.07;;;6.40;;
938;SDS011;456;53.584;9.968;2023-09-18T02:55:36;7.07;;;6.47;;
938;SDS011;456;53.584;9.968;2023-09-18T02:58:02;7.30;;;6.60;;
938;SDS011;456;53.584;9.968;2023-09-18T03:00:28;7.40;;;6.80;;
938;SDS011;456;53.584;9.968;2023-09-18T03:02:53;7.67;;;7.07;;
938;SDS011;456;53.584;9.968;2023-09-18T03:05:19;8.20;;;7.60;;
938;SDS011;456;53.584;9.968;2023-09-18T03:07:44;7.90;;;7.20;;
938;SDS011;456;53.584;9.968;2023-09-18T03:10:10;7.60;;;7.03;;
938;SDS011;456;53.584;9.968;2023-09-18T03:12:39;7.40;;;6.80;;
938;SDS011;456;53.584;9.968;2023-09-18T03:15:05;7.40;;;6.70;;
938;SDS011;456;53.584;9.968;2023-09-18T03:17:31;7.77;;;7.17;;
938;SDS011;456;53.584;9.968;2023-09-18T03:19:57;7.30;;;6.70;;
938;SDS011;456;53.584;9.968;2023-09-18T03:22:25;7.60;;;7.00;;
938;SDS011;456;53.584;9.968;2023-09-18T03:24:51;6.97;;;6.37;;
938;SDS011;456;53.584;9.968;2023-09-18T03:27:16;7.53;;;6.93;;
938;SDS011;456;53.584;9.968;2023-09-18T03:29:42;8.03;;;7.30;;
938;SDS011;456;53.584;9.968;2023-09-18T03:32:08;7.97;;;7.37;;
938;SDS011;456;53.584;9.968;2023-09-18T03:34:37;7.60;;;7.00;;
938;SDS011;456;53.584;9.968;2023-09-18T03:37:03;7.17;;;6.57;;
938;SDS011;456;53.584;9.968;2023-09-18T03:39:28;7.37;;;6.77;;
938;SDS011;456;53.584;9.968;2023-09-18T03:41:54;6.47;;;5.87;;
938;SDS011;456;53.584;9.968;2023-09-18T03:44:19;7.50;;;6.80;;
938;SDS011;456;53.584;9.968;2023-09-18T03:46:46;7.33;;;6.73;;
938;SDS011;456;53.584;9.968;2023-09-18T03:49:11;6.70;;;6.20;;
938;SDS011;456;53.584;9.968;2023-09-18T03:51:37;7.03;;;6.53;;
938;SDS011;456;53.584;9.968;2023-09-18T03:54:02;7.30;;;6.80;;
938;SDS011;456;53.584;9.968;2023-09-18T03:56:28;6.30;;;5.90;;
938;SDS011;456;53.584;9.968;2023-09-18T03:58:53;6.97;;;6.47;;
938;SDS011;456;53.584;9.968;2023-09-18T04:01:20;7.40;;;6.80;;
938;SDS011;456;53.584;9.968;2023-09-18T04:03:45;6.33;;;5.77;;
938;SDS011;456;53.584;9.968;2023-09-18T04:06:11;7.07;;;6.57;;
938;SDS011;456;53.584;9.968;2023-09-18T04:08:37;7.27;;;6.67;;
938;SDS011;456;53.584;9.968;2023-09-18T04:11:02;8.30;;;7.50;;
938;SDS011;456;53.584;9.968;2023-09-18T04:13:29;7.90;;;7.20;;
938;SDS011;456;53.584;9.968;2023-09-18T04:15:54;8.17;;;7.37;;
938;SDS011;456;53.584;9.968;2023-09-18T04:18:22;8.07;;;7.47;;
938;SDS011;456;53.584;9.968;2023-09-18T04:20:47;7.40;;;6.80;;
938;SDS011;456;53.584;9.968;2023-09-18T04:23:22;6.73;;;6.13;;
938;SDS011;456;53.584;9.968;2023-09-18T04:25:52;5.93;;;5.53;;
938;SDS011;456;53.584;9.968;2023-09-18T04:28:19;7.30;;;6.70;;
938;SDS011;456;53.584;9.968;2023-09-18T04:30:46;6.90;;;6.40;;
938;SDS011;456;53.584;9.968;2023-09-18T04:33:13;7.60;;;7.00;;
938;SDS011;456;53.584;9.968;2023-09-18T04:35:39;7.23;;;6.63;;
938;SDS011;456;53.584;9.968;2023-09-18T04:38:08;7.73;;;6.97;;
938;SDS011;456;53.584;9.968;2023-09-18T04:40:35;7.20;;;6.70;;
938;SDS011;456;53.584;9.968;2023-09-18T04:43:01;7.10;;;6.60;;
938;SDS011;456;53.584;9.968;2023-09-18T04:45:29;7.03;;;6.43;;
938;SDS011;456;53.584;9.968;2023-09-18T04:47:55;7.80;;;7.20;;
938;SDS011;456;53.584;9.968;2023-09-18T04:50:21;7.53;;;7.03;;
938;SDS011;456;53.584;9.968;2023-09-18T04:52:47;8.47;;;7.77;;
938;SDS011;456;53.584;9.968;2023-09-18T04:55:13;7.87;;;7.27;;
938;SDS011;456;53.584;9.968;2023-09-18T04:57:39;7.90;;;7.20;;
938;SDS011;456;53.584;9.968;2023-09-18T05:00:05;7.13;;;6.53;;
938;SDS011;456;53.584;9.968;2023-09-18T05:02:37;7.47;;;6.87;;
938;SDS011;456;53.584;9.968;2023-09-18T05:05:03;7.27;;;6.57;;
938;SDS011;456;53.584;9.968;2023-09-18T05:07:29;7.53;;;6.93;;
938;SDS011;456;53.584;9.968;2023-09-18T05:09:55;8.27;;;7.47;;
938;SDS011;456;53.584;9.968;2023-09-18T05:12:21;6.90;;;6.30;;
938;SDS011;456;53.584;9.968;2023-09-18T05:14:47;7.27;;;6.60;;
938;SDS011;456;53.584;9.968;2023-09-18T05:17:14;6.80;;;6.30;;
938;SDS011;456;53.584;9.968;2023-09-18T05:19:41;7.50;;;6.80;;
938;SDS011;456;53.584;9.968;2023-09-18T05:22:10;7.30;;;6.63;;
938;SDS011;456;53.584;9.968;2023-09-18T05:24:39;7.10;;;6.50;;
938;SDS011;456;53.584;9.968;2023-09-18T05:27:05;7.50;;;6.90;;
938;SDS011;456;53.584;9.968;2023-09-18T05:29:34;7.83;;;7.17;;
938;SDS011;456;53.584;9.968;2023-09-18T05:32:01;7.33;;;6.73;;
938;SDS011;456;53.584;9.968;2023-09-18T05:34:27;7.73;;;7.13;;
938;SDS011;456;53.584;9.968;2023-09-18T05:36:52;7.43;;;6.73;;
938;SDS011;456;53.584;9.968;2023-09-18T05:39:18;7.33;;;6.73;;
938;SDS011;456;53.584;9.968;2023-09-18T05:41:44;7.10;;;6.50;;
938;SDS011;456;53.584;9.968;2023-09-18T05:44:10;7.10;;;6.60;;
938;SDS011;456;53.584;9.968;2023-09-18T05:46:36;6.97;;;6.47;;
938;SDS011;456;53.584;9.968;2023-09-18T05:49:02;7.13;;;6.53;;
938;SDS011;456;53.584;9.968;2023-09-18T05:51:28;7.10;;;6.57;;
938;SDS011;456;53.584;9.968;2023-09-18T05:53:54;6.97;;;6.47;;
938;SDS011;456;53.584;9.968;2023-09-18T05:56:20;7.50;;;6.93;;
938;SDS011;456;53.584;9.968;2023-09-18T05:58:46;7.60;;;7.00;;
938;SDS011;456;53.584;9.968;2023-09-18T06:01:11;6.87;;;6.27;;
938;SDS011;456;53.584;9.968;2023-09-18T06:03:37;7.37;;;6.77;;
938;SDS011;456;53.584;9.968;2023-09-18T06:06:03;7.77;;;7.17;;
938;SDS011;456;53.584;9.968;2023-09-18T06:08:29;6.83;;;6.23;;
938;SDS011;456;53.584;9.968;2023-09-18T06:10:55;6.97;;;6.37;;
938;SDS011;456;53.584;9.968;2023-09-18T06:13:21;7.27;;;6.67;;
938;SDS011;456;53.584;9.968;2023-09-18T06:15:49;7.10;;;6.60;;
938;SDS011;456;53.584;9.968;2023-09-18T06:18:15;7.20;;;6.60;;
938;SDS011;456;53.584;9.968;2023-09-18T06:20:41;7.53;;;6.93;;
938;SDS011;456;53.584;9.968;2023-09-18T06:23:08;7.80;;;7.20;;
938;SDS011;456;53.584;9.968;2023-09-18T06:25:34;7.23;;;6.53;;
938;SDS011;456;53.584;9.968;2023-09-18T06:27:59;7.00;;;6.40;;
938;SDS011;456;53.584;9.968;2023-09-18T06:30:27;6.63;;;6.13;;
938;SDS011;456;53.584;9.968;2023-09-18T06:32:54;7.40;;;6.70;;
938;SDS011;456;53.584;9.968;2023-09-18T06:35:20;7.17;;;6.57;;
938;SDS011;456;53.584;9.968;2023-09-18T06:37:45;7.23;;;6.63;;
938;SDS011;456;53.584;9.968;2023-09-18T06:40:11;6.93;;;6.40;;
938;SDS011;456;53.584;9.968;2023-09-18T06:42:37;6.77;;;6.27;;
938;SDS011;456;53.584;9.968;2023-09-18T06:45:03;6.70;;;6.10;;
938;SDS011;456;53.584;9.968;2023-09-18T06:47:31;7.30;;;6.70;;
938;SDS011;456;53.584;9.968;2023-09-18T06:49:57;7.27;;;6.67;;
938;SDS011;456;53.584;9.968;2023-09-18T06:52:25;7.80;;;7.20;;
938;SDS011;456;53.584;9.968;2023-09-18T06:54:51;7.20;;;6.70;;
938;SDS011;456;53.584;9.968;2023-09-18T06:57:17;7.77;;;7.10;;
938;SDS011;456;53.584;9.968;2023-09-18T06:59:43;6.97;;;6.37;;
938;SDS011;456;53.584;9.968;2023-09-18T07:02:09;6.80;;;6.30;;
938;SDS011;456;53.584;9.968;2023-09-18T07:04:35;7.33;;;6.73;;
938;SDS011;456;53.584;9.968;2023-09-18T07:07:01;6.90;;;6.40;;
938;SDS011;456;53.584;9.968;2023-09-18T07:09:27;7.03;;;6.53;;
938;SDS011;456;53.584;9.968;2023-09-18T07:11:52;6.57;;;6.07;;
938;SDS011;456;53.584;9.968;2023-09-18T07:14:18;7.23;;;6.63;;
938;SDS011;456;53.584;9.968;2023-09-18T07:16:43;7.33;;;6.73;;
938;SDS011;456;53.584;9.968;2023-09-18T07:19:09;6.73;;;6.13;;
938;SDS011;456;53.584;9.968;2023-09-18T07:21:37;7.20;;;6.70;;
938;SDS011;456;53.584;9.968;2023-09-18T07:24:03;6.80;;;6.20;;
938;SDS011;456;53.584;9.968;2023-09-18T07:26:29;7.10;;;6.50;;
938;SDS011;456;53.584;9.968;2023-09-18T07:28:55;7.27;;;6.57;;
938;SDS011;456;53.584;9.968;2023-09-18T07:31:21;6.90;;;6.40;;
938;SDS011;456;53.584;9.968;2023-09-18T07:33:47;6.97;;;6.47;;
938;SDS011;456;53.584;9.968;2023-09-18T07:36:13;6.53;;;6.03;;
938;SDS011;456;53.584;9.968;2023-09-18T07:38:40;6.83;;;6.33;;
938;SDS011;456;53.584;9.968;2023-09-18T07:41:08;6.93;;;6.33;;
938;SDS011;456;53.584;9.968;2023-09-18T07:43:34;7.33;;;6.83;;
938;SDS011;456;53.584;9.968;2023-09-18T07:45:59;6.70;;;6.20;;
938;SDS011;456;53.584;9.968;2023-09-18T07:48:26;7.07;;;6.50;;
938;SDS011;456;53.584;9.968;2023-09-18T07:50:52;7.00;;;6.40;;
938;SDS011;456;53.584;9.968;2023-09-18T07:53:19;6.70;;;6.20;;
938;SDS011;456;53.584;9.968;2023-09-18T07:55:45;6.27;;;5.77;;
938;SDS011;456;53.584;9.968;2023-09-18T07:58:11;7.07;;;6.57;;
938;SDS011;456;53.584;9.968;2023-09-18T08:00:36;6.87;;;6.37;;
938;SDS011;456;53.584;9.968;2023-09-18T08:03:02;6.10;;;5.70;;
938;SDS011;456;53.584;9.968;2023-09-18T08:05:28;7.27;;;6.67;;
938;SDS011;456;53.584;9.968;2023-09-18T08:07:55;6.30;;;5.80;;
938;SDS011;456;53.584;9.968;2023-09-18T08:10:21;6.87;;;6.30;;
938;SDS011;456;53.584;9.968;2023-09-18T08:12:48;5.90;;;5.30;;
938;SDS011;456;53.584;9.968;2023-09-18T08:15:16;6.40;;;5.90;;
938;SDS011;456;53.584;9.968;2023-09-18T08:17:42;7.17;;;6.50;;
938;SDS011;456;53.584;9.968;2023-09-18T08:20:08;5.67;;;5.27;;
938;SDS011;456;53.584;9.968;2023-09-18T08:22:38;6.20;;;5.70;;
938;SDS011;456;53.584;9.968;2023-09-18T08:25:05;5.97;;;5.47;;
938;SDS011;456;53.584;9.968;2023-09-18T08:27:36;6.10;;;5.70;;
938;SDS011;456;53.584;9.968;2023-09-18T08:30:07;6.80;;;6.30;;
938;SDS011;456;53.584;9.968;2023-09-18T08:32:34;5.70;;;5.30;;
938;SDS011;456;53.584;9.968;2023-09-18T08:35:01;6.43;;;5.93;;
938;SDS011;456;53.584;9.968;2023-09-18T08:37:27;5.50;;;5.10;;
938;SDS011;456;53.584;9.968;2023-09-18T08:39:53;5.87;;;5.37;;
938;SDS011;456;53.584;9.968;2023-09-18T08:42:18;6.40;;;5.80;;
938;SDS011;456;53.584;9.968;2023-09-18T08:44:48;6.00;;;5.50;;
938;SDS011;456;53.584;9.968;2023-09-18T08:47:16;6.30;;;5.80;;
938;SDS011;456;53.584;9.968;2023-09-18T08:49:43;5.73;;;5.23;;
938;SDS011;456;53.584;9.968;2023-09-18T08:52:11;5.33;;;4.90;;
938;SDS011;456;53.584;9.968;2023-09-18T08:54:37;5.67;;;5.27;;
938;SDS011;456;53.584;9.968;2023-09-18T08:57:03;6.40;;;5.80;;
938;SDS011;456;53.584;9.968;2023-09-18T08:59:32;6.30;;;5.80;;
938;SDS011;456;53.584;9.968;2023-09-18T09:01:59;5.50;;;5.10;;
938;SDS011;456;53.584;9.968;2023-09-18T09:04:25;6.20;;;5.70;;
938;SDS011;456;53.584;9.968;2023-09-18T09:06:51;5.50;;;5.10;;
938;SDS011;456;53.584;9.968;2023-09-18T09:09:16;6.03;;;5.43;;
938;SDS011;456;53.584;9.968;2023-09-18T09:11:50;6.27;;;5.77;;
938;SDS011;456;53.584;9.968;2023-09-18T09:14:16;6.10;;;5.60;;
938;SDS011;456;53.584;9.968;2023-09-18T09:16:52;5.53;;;5.13;;
938;SDS011;456;53.584;9.968;2023-09-18T09:19:20;5.00;;;4.60;;
938;SDS011;456;53.584;9.968;2023-09-18T09:21:55;5.37;;;4.97;;
938;SDS011;456;53.584;9.968;2023-09-18T09:24:55;5.40;;;5.00;;
938;SDS011;456;53.584;9.968;2023-09-18T09:27:14;5.40;;;5.00;;
938;SDS011;456;53.584;9.968;2023-09-18T09:29:43;5.13;;;4.73;;
938;SDS011;456;53.584;9.968;2023-09-18T09:32:23;5.53;;;5.13;;
938;SDS011;456;53.584;9.968;2023-09-18T09:34:48;5.50;;;5.00;;
938;SDS011;456;53.584;9.968;2023-09-18T09:37:14;5.40;;;4.90;;
938;SDS011;456;53.584;9.968;2023-09-18T09:39:49;4.80;;;4.40;;
938;SDS011;456;53.584;9.968;2023-09-18T09:42:19;5.17;;;4.77;;
938;SDS011;456;53.584;9.968;2023-09-18T09:45:10;5.50;;;5.00;;
938;SDS011;456;53.584;9.968;2023-09-18T09:47:39;4.90;;;4.50;;
938;SDS011;456;53.584;9.968;2023-09-18T09:52:35;4.77;;;4.37;;
938;SDS011;456;53.584;9.968;2023-09-18T09:55:05;5.33;;;4.90;;
938;SDS011;456;53.584;9.968;2023-09-18T09:57:56;5.17;;;4.80;;
938;SDS011;456;53.584;9.968;2023-09-18T10:00:38;4.93;;;4.53;;
938;SDS011;456;53.584;9.968;2023-09-18T10:03:17;5.17;;;4.77;;
938;SDS011;456;53.584;9.968;2023-09-18T10:05:44;5.00;;;4.60;;
938;SDS011;456;53.584;9.968;2023-09-18T10:08:12;4.57;;;4.20;;
938;SDS011;456;53.584;9.968;2023-09-18T10:10:52;4.63;;;4.33;;
938;SDS011;456;53.584;9.968;2023-09-18T10:13:42;5.70;;;5.20;;
938;SDS011;456;53.584;9.968;2023-09-18T10:16:32;5.03;;;4.63;;
938;SDS011;456;53.584;9.968;2023-09-18T10:21:46;5.43;;;4.93;;
938;SDS011;456;53.584;9.968;2023-09-18T10:24:34;5.57;;;5.07;;
938;SDS011;456;53.584;9.968;2023-09-18T10:27:03;5.00;;;4.60;;
938;SDS011;456;53.584;9.968;2023-09-18T10:29:32;5.27;;;4.87;;
938;SDS011;456;53.584;9.968;2023-09-18T10:32:05;5.07;;;4.57;;
938;SDS011;456;53.584;9.968;2023-09-18T10:34:34;4.67;;;4.37;;
938;SDS011;456;53.584;9.968;2023-09-18T10:37:02;5.10;;;4.70;;
938;SDS011;456;53.584;9.968;2023-09-18T10:39:34;5.40;;;4.90;;
938;SDS011;456;53.584;9.968;2023-09-18T10:42:01;4.80;;;4.40;;
938;SDS011;456;53.584;9.968;2023-09-18T10:44:28;5.10;;;4.70;;
938;SDS011;456;53.584;9.968;2023-09-18T10:46:57;4.30;;;4.00;;
938;SDS011;456;53.584;9.968;2023-09-18T10:49:25;4.67;;;4.27;;
938;SDS011;456;53.584;9.968;2023-09-18T10:51:53;4.97;;;4.53;;
938;SDS011;456;53.584;9.968;2023-09-18T10:54:20;5.50;;;5.10;;
938;SDS011;456;53.584;9.968;2023-09-18T10:56:48;4.70;;;4.40;;
938;SDS011;456;53.584;9.968;2023-09-18T10:59:14;5.60;;;5.13;;
938;SDS011;456;53.584;9.968;2023-09-18T11:01:41;5.17;;;4.77;;
938;SDS011;456;53.584;9.968;2023-09-18T11:04:07;4.83;;;4.47;;
938;SDS011;456;53.584;9.968;2023-09-18T11:10:24;4.70;;;4.30;;
938;SDS011;456;53.584;9.968;2023-09-18T11:12:50;4.90;;;4.50;;
938;SDS011;456;53.584;9.968;2023-09-18T11:15:25;4.30;;;4.00;;
938;SDS011;456;53.584;9.968;2023-09-18T11:17:59;4.80;;;4.40;;
938;SDS011;456;53.584;9.968;2023-09-18T11:20:28;5.30;;;4.90;;
938;SDS011;456;53.584;9.968;2023-09-18T11:22:58;4.87;;;4.47;;
938;SDS011;456;53.584;9.968;2023-09-18T11:25:35;4.73;;;4.33;;
938;SDS011;456;53.584;9.968;2023-09-18T11:28:13;4.30;;;3.90;;
938;SDS011;456;53.584;9.968;2023-09-18T11:30:53;5.00;;;4.60;;
938;SDS011;456;53.584;9.968;2023-09-18T11:33:31;5.23;;;4.47;;
938;SDS011;456;53.584;9.968;2023-09-18T11:36:01;4.10;;;3.80;;
938;SDS011;456;53.584;9.968;2023-09-18T11:38:56;4.87;;;4.47;;
938;SDS011;456;53.584;9.968;2023-09-18T11:41:26;5.03;;;4.57;;
938;SDS011;456;53.584;9.968;2023-09-18T11:46:47;5.13;;;4.73;;
938;SDS011;456;53.584;9.968;2023-09-18T11:49:19;4.40;;;4.10;;
938;SDS011;456;53.584;9.968;2023-09-18T11:51:47;4.20;;;3.90;;
938;SDS011;456;53.584;9.968;2023-09-18T11:54:12;4.30;;;4.00;;
938;SDS011;456;53.584;9.968;2023-09-18T11:56:39;4.03;;;3.73;;
938;SDS011;456;53.584;9.968;2023-09-18T11:59:05;4.63;;;4.30;;
938;SDS011;456;53.584;9.968;2023-09-18T12:01:31;4.57;;;4.10;;
938;SDS011;456;53.584;9.968;2023-09-18T12:04:06;4.47;;;4.13;;
938;SDS011;456;53.584;9.968;2023-09-18T12:06:39;3.80;;;3.60;;
938;SDS011;456;53.584;9.968;2023-09-18T12:09:06;3.97;;;3.67;;
938;SDS011;456;53.584;9.968;2023-09-18T12:11:33;4.10;;;3.80;;
938;SDS011;456;53.584;9.968;2023-09-18T12:14:04;4.60;;;4.20;;
938;SDS011;456;53.584;9.968;2023-09-18T12:16:30;4.40;;;3.93;;
938;SDS011;456;53.584;9.968;2023-09-18T12:18:56;3.83;;;3.53;;
938;SDS011;456;53.584;9.968;2023-09-18T12:21:22;3.70;;;3.37;;
938;SDS011;456;53.584;9.968;2023-09-18T12:23:48;3.63;;;3.33;;
938;SDS011;456;53.584;9.968;2023-09-18T12:26:15;4.00;;;3.70;;
938;SDS011;456;53.584;9.968;2023-09-18T12:28:41;5.20;;;3.67;;
938;SDS011;456;53.584;9.968;2023-09-18T12:31:11;4.17;;;3.87;;
938;SDS011;456;53.584;9.968;2023-09-18T12:33:38;3.93;;;3.63;;
938;SDS011;456;53.584;9.968;2023-09-18T12:36:05;7.67;;;3.30;;
938;SDS011;456;53.584;9.968;2023-09-18T12:38:31;4.20;;;3.90;;
938;SDS011;456;53.584;9.968;2023-09-18T12:40:57;3.70;;;3.40;;
938;SDS011;456;53.584;9.968;2023-09-18T12:43:30;4.17;;;3.70;;
938;SDS011;456;53.584;9.968;2023-09-18T12:46:01;3.93;;;3.63;;
938;SDS011;456;53.584;9.968;2023-09-18T12:48:28;3.10;;;2.87;;
938;SDS011;456;53.584;9.968;2023-09-18T12:50:54;3.80;;;3.50;;
938;SDS011;456;53.584;9.968;2023-09-18T12:53:22;4.27;;;3.87;;
938;SDS011;456;53.584;9.968;2023-09-18T12:55:48;5.33;;;3.83;;
938;SDS011;456;53.584;9.968;2023-09-18T12:58:18;4.27;;;3.90;;
938;SDS011;456;53.584;9.968;2023-09-18T13:00:45;4.03;;;3.50;;
938;SDS011;456;53.584;9.968;2023-09-18T13:03:14;3.77;;;3.47;;
938;SDS011;456;53.584;9.968;2023-09-18T13:05:40;4.37;;;3.83;;
938;SDS011;456;53.584;9.968;2023-09-18T13:08:05;3.50;;;3.20;;
938;SDS011;456;53.584;9.968;2023-09-18T13:10:42;3.20;;;3.00;;
938;SDS011;456;53.584;9.968;2023-09-18T13:13:18;4.07;;;3.67;;
938;SDS011;456;53.584;9.968;2023-09-18T13:15:44;3.37;;;3.07;;
938;SDS011;456;53.584;9.968;2023-09-18T13:18:12;3.03;;;2.83;;
938;SDS011;456;53.584;9.968;2023-09-18T13:20:38;3.90;;;3.60;;
938;SDS011;456;53.584;9.968;2023-09-18T13:23:05;3.53;;;3.23;;
938;SDS011;456;53.584;9.968;2023-09-18T13:25:35;3.63;;;3.33;;
938;SDS011;456;53.584;9.968;2023-09-18T13:28:04;4.20;;;3.90;;
938;SDS011;456;53.584;9.968;2023-09-18T13:30:31;3.67;;;3.37;;
938;SDS011;456;53.584;9.968;2023-09-18T13:33:04;3.30;;;3.00;;
938;SDS011;456;53.584;9.968;2023-09-18T13:35:36;4.03;;;3.37;;
938;SDS011;456;53.584;9.968;2023-09-18T13:38:06;3.13;;;2.93;;
938;SDS011;456;53.584;9.968;2023-09-18T13:40:33;2.97;;;2.77;;
938;SDS011;456;53.584;9.968;2023-09-18T13:43:02;2.90;;;2.70;;
938;SDS011;456;53.584;9.968;2023-09-18T13:45:32;3.23;;;2.93;;
938;SDS011;456;53.584;9.968;2023-09-18T13:48:00;3.47;;;3.27;;
938;SDS011;456;53.584;9.968;2023-09-18T13:50:25;2.67;;;2.47;;
938;SDS011;456;53.584;9.968;2023-09-18T13:52:51;3.40;;;3.10;;
938;SDS011;456;53.584;9.968;2023-09-18T13:55:16;3.13;;;2.93;;
938;SDS011;456;53.584;9.968;2023-09-18T13:57:42;4.80;;;2.77;;
938;SDS011;456;53.584;9.968;2023-09-18T14:00:08;3.00;;;2.80;;
938;SDS011;456;53.584;9.968;2023-09-18T14:02:37;2.90;;;2.70;;
938;SDS011;456;53.584;9.968;2023-09-18T14:05:03;3.00;;;2.63;;
938;SDS011;456;53.584;9.968;2023-09-18T14:07:30;3.07;;;2.87;;
938;SDS011;456;53.584;9.968;2023-09-18T14:09:55;3.33;;;3.00;;
938;SDS011;456;53.584;9.968;2023-09-18T14:12:21;3.40;;;3.10;;
938;SDS011;456;53.584;9.968;2023-09-18T14:14:47;2.90;;;2.70;;
938;SDS011;456;53.584;9.968;2023-09-18T14:17:12;3.00;;;2.80;;
938;SDS011;456;53.584;9.968;2023-09-18T14:19:38;2.77;;;2.57;;
938;SDS011;456;53.584;9.968;2023-09-18T14:22:04;3.10;;;2.90;;
938;SDS011;456;53.584;9.968;2023-09-18T14:24:31;3.00;;;2.80;;
938;SDS011;456;53.584;9.968;2023-09-18T14:26:59;2.90;;;2.70;;
938;SDS011;456;53.584;9.968;2023-09-18T14:29:25;2.83;;;2.63;;
938;SDS011;456;53.584;9.968;2023-09-18T14:31:51;3.27;;;3.07;;
938;SDS011;456;53.584;9.968;2023-09-18T14:34:17;2.67;;;2.47;;
938;SDS011;456;53.584;9.968;2023-09-18T14:36:43;3.00;;;2.70;;
938;SDS011;456;53.584;9.968;2023-09-18T14:39:09;2.63;;;2.20;;
938;SDS011;456;53.584;9.968;2023-09-18T14:41:38;3.23;;;2.93;;
938;SDS011;456;53.584;9.968;2023-09-18T14:44:05;2.80;;;2.60;;
938;SDS011;456;53.584;9.968;2023-09-18T14:46:34;2.87;;;2.67;;
938;SDS011;456;53.584;9.968;2023-09-18T14:49:02;3.10;;;2.90;;
938;SDS011;456;53.584;9.968;2023-09-18T14:51:28;2.23;;;2.03;;
938;SDS011;456;53.584;9.968;2023-09-18T14:53:54;2.50;;;2.30;;
938;SDS011;456;53.584;9.968;2023-09-18T14:56:20;2.80;;;2.60;;
938;SDS011;456;53.584;9.968;2023-09-18T14:58:46;2.80;;;2.60;;
938;SDS011;456;53.584;9.968;2023-09-18T15:01:11;2.20;;;2.10;;
938;SDS011;456;53.584;9.968;2023-09-18T15:03:38;2.70;;;2.50;;
938;SDS011;456;53.584;9.968;2023-09-18T15:06:04;2.80;;;2.60;;
938;SDS011;456;53.584;9.968;2023-09-18T15:08:32;2.67;;;2.40;;
938;SDS011;456;53.584;9.968;2023-09-18T15:11:00;2.77;;;2.57;;
938;SDS011;456;53.584;9.968;2023-09-18T15:13:26;2.80;;;2.50;;
938;SDS011;456;53.584;9.968;2023-09-18T15:15:52;2.70;;;2.50;;
938;SDS011;456;53.584;9.968;2023-09-18T15:18:17;2.23;;;2.03;;
938;SDS011;456;53.584;9.968;2023-09-18T15:20:43;2.50;;;2.30;;
938;SDS011;456;53.584;9.968;2023-09-18T15:23:08;2.60;;;2.40;;
938;SDS011;456;53.584;9.968;2023-09-18T15:25:35;2.70;;;2.50;;
938;SDS011;456;53.584;9.968;2023-09-18T15:28:06;2.00;;;1.90;;
938;SDS011;456;53.584;9.968;2023-09-18T15:30:32;2.40;;;2.20;;
938;SDS011;456;53.584;9.968;2023-09-18T15:32:58;2.63;;;2.43;;
938;SDS011;456;53.584;9.968;2023-09-18T15:35:23;2.60;;;2.40;;
938;SDS011;456;53.584;9.968;2023-09-18T15:37:50;2.33;;;2.13;;
938;SDS011;456;53.584;9.968;2023-09-18T15:40:16;2.00;;;1.90;;
938;SDS011;456;53.584;9.968;2023-09-18T15:42:44;3.10;;;2.80;;
938;SDS011;456;53.584;9.968;2023-09-18T15:45:10;3.70;;;2.30;;
938;SDS011;456;53.584;9.968;2023-09-18T15:47:40;2.20;;;2.10;;
938;SDS011;456;53.584;9.968;2023-09-18T15:50:07;2.10;;;2.00;;
938;SDS011;456;53.584;9.968;2023-09-18T15:52:33;2.60;;;2.40;;
938;SDS011;456;53.584;9.968;2023-09-18T15:54:59;2.00;;;1.80;;
938;SDS011;456;53.584;9.968;2023-09-18T15:57:25;2.60;;;2.40;;
938;SDS011;456;53.584;9.968;2023-09-18T15:59:54;2.33;;;2.23;;